Rock Springs Sweetwater County Airport
KRKS : rendu visible

Aérodrome :











RETROUVEZ-NOUS SUR...

 
LOGIN :

S'inscrire | Disclaimer

   EN    FR    IT 

 









Légende :    VFR   VFR Marginal   IFR   IFR Intensif   IFR Très Intensif
Visi : 
Plafond : 
>= 8 km
>= 3000ft
5 à 8 km
1000 à 3000 ft
1500m à 5 km
500 à 1000 ft
800 à 1500m
200 à 500 ft
< 800m
< 200 ft
Symboles :   Orages  Brouillard  Fortes neiges  Fortes précipitations  Vent > 20 kt







- Altitude de l'aérodrome : 6764 ft
- Code IATA : RKS


KRKS - Rock Springs Sweetwater County

DERNIER METAR :
  • 240654Z AUTO 23011KT 10SM OVC050 02/01 A2992 RMK AO2 SLP127 T00220006 400281006 TSNO

METARs EXPIRÉS :
  • 240616Z AUTO 22008KT 10SM SCT024 OVC055 02/01 A2991 RMK AO2 T00170006 TSNO
  • 240604Z AUTO 23008KT 10SM BKN023 BKN060 02/00 A2991 RMK AO2 T00170000 TSNO
  • 240554Z AUTO 23008KT 10SM SCT023 01/00 A2991 RMK AO2 SLP128 60000 T00110000 10022 20011 51005 TSNO
  • 240454Z AUTO 22011KT 10SM BKN026 BKN060 02/01 A2990 RMK AO2 RAB0356E25 SLP121 P0000 T00170006 TSNO
  • 240443Z AUTO 22010KT 10SM BKN028 OVC060 02/01 A2990 RMK AO2 RAB0356E25 P0000 T00170006 TSNO
  • 240433Z AUTO 22012KT 10SM BKN030 OVC060 02/01 A2990 RMK AO2 RAB0356E25 P0000 T00170006 TSNO

TAF KRKS
Valide du 24 à 06h jusqu'au 25 à 06h UTC


240532Z 2406/2506 22015G22KT 6SM -RASN SCT010 BKN025
FM241200 21011KT P6SM VCSH SCT015 BKN030
FM241700 23018G28KT P6SM SCT030 BKN050
FM250300 22008KT P6SM BKN050
FIR KZLC / Amérique du Nord



MET'MAP, la Météo Aéronautique d'un coup d'oeil ! - Copyright ORBIFLY Décembre 2007 - Disclaimer

ORBIFLY MET'MAP TEAM :

Programmation & Développement : Alexandra Zaïnal
Conception & Développement : Baudouin d'Aumeries
Co-Programmation & Développement : Marc-Olivier Méhu
Soutien technique & logistique : Manuel Goepfert

Contact : metmap@orbifly.com




SOURCES & CREDITS :

   NOAA       Earth
Advisory